Time;durP1;ratioP1;P1;durP2;ratioP2;P2;SDS_P1;SDS_P2;PMS_P1;PMS_P2;Temp;Humidity;BMP_temperature;BMP_pressure;BME280_temperature;BME280_humidity;BME280_pressure;Samples;Min_cycle;Max_cycle;Signal;HPM_P1;HPM_P2
2020/03/02 00:00:01;;;;;;;0.3;0.3;;;;;;;;;;;;;
2020/03/02 00:07:19;;;;;;;0.7;0.3;;;;;;;;;;;;;
2020/03/02 00:09:42;;;;;;;0.4;0.4;;;;;;;;;;;;;
2020/03/02 00:12:07;;;;;;;1.7;0.4;;;;;;;;;;;;;
2020/03/02 00:14:32;;;;;;;0.9;0.4;;;;;;;;;;;;;
2020/03/02 00:16:57;;;;;;;0.6;0.5;;;;;;;;;;;;;
2020/03/02 00:19:23;;;;;;;1.5;0.3;;;;;;;;;;;;;
2020/03/02 00:21:48;;;;;;;1.2;0.4;;;;;;;;;;;;;
2020/03/02 00:24:13;;;;;;;3.4;0.4;;;;;;;;;;;;;
2020/03/02 00:26:38;;;;;;;0.5;0.4;;;;;;;;;;;;;
2020/03/02 00:29:03;;;;;;;0.7;0.3;;;;;;;;;;;;;
2020/03/02 00:31:28;;;;;;;0.2;0.2;;;;;;;;;;;;;
2020/03/02 00:33:53;;;;;;;0.7;0.4;;;;;;;;;;;;;
2020/03/02 00:36:19;;;;;;;1.1;0.2;;;;;;;;;;;;;
2020/03/02 00:38:44;;;;;;;0.7;0.3;;;;;;;;;;;;;
2020/03/02 00:41:09;;;;;;;0.6;0.3;;;;;;;;;;;;;
2020/03/02 00:43:34;;;;;;;1.2;0.4;;;;;;;;;;;;;
2020/03/02 00:45:59;;;;;;;0.6;0.2;;;;;;;;;;;;;
2020/03/02 00:48:24;;;;;;;0.2;0.2;;;;;;;;;;;;;
2020/03/02 00:50:49;;;;;;;0.5;0.3;;;;;;;;;;;;;
2020/03/02 00:53:14;;;;;;;1.1;0.3;;;;;;;;;;;;;
2020/03/02 00:55:39;;;;;;;0.5;0.4;;;;;;;;;;;;;
2020/03/02 00:58:04;;;;;;;0.8;0.3;;;;;;;;;;;;;
2020/03/02 01:00:30;;;;;;;1.7;0.3;;;;;;;;;;;;;
2020/03/02 01:02:55;;;;;;;0.4;0.3;;;;;;;;;;;;;
2020/03/02 01:05:20;;;;;;;0.4;0.2;;;;;;;;;;;;;
2020/03/02 01:07:45;;;;;;;0.2;0.2;;;;;;;;;;;;;
2020/03/02 01:10:10;;;;;;;0.4;0.3;;;;;;;;;;;;;
2020/03/02 01:12:35;;;;;;;0.8;0.4;;;;;;;;;;;;;
2020/03/02 01:15:00;;;;;;;0.5;0.4;;;;;;;;;;;;;
2020/03/02 01:17:26;;;;;;;1.4;0.4;;;;;;;;;;;;;
2020/03/02 01:19:51;;;;;;;1;0.5;;;;;;;;;;;;;
2020/03/02 01:22:16;;;;;;;1.2;0.4;;;;;;;;;;;;;
2020/03/02 01:24:41;;;;;;;0.6;0.4;;;;;;;;;;;;;
2020/03/02 01:27:06;;;;;;;0.6;0.3;;;;;;;;;;;;;
2020/03/02 01:29:31;;;;;;;0.7;0.4;;;;;;;;;;;;;
2020/03/02 01:31:57;;;;;;;0.5;0.2;;;;;;;;;;;;;
2020/03/02 01:34:22;;;;;;;1.9;0.6;;;;;;;;;;;;;
2020/03/02 01:36:47;;;;;;;0.8;0.4;;;;;;;;;;;;;
2020/03/02 01:39:12;;;;;;;0.5;0.3;;;;;;;;;;;;;
2020/03/02 01:41:38;;;;;;;1.3;0.5;;;;;;;;;;;;;
2020/03/02 01:44:06;;;;;;;0.6;0.4;;;;;;;;;;;;;
2020/03/02 01:46:39;;;;;;;0.6;0.6;;;;;;;;;;;;;
2020/03/02 01:48:53;;;;;;;0.6;0.4;;;;;;;;;;;;;
2020/03/02 01:51:17;;;;;;;0.9;0.5;;;;;;;;;;;;;
2020/03/02 01:53:42;;;;;;;0.6;0.4;;;;;;;;;;;;;
2020/03/02 01:56:08;;;;;;;0.8;0.3;;;;;;;;;;;;;
2020/03/02 01:58:33;;;;;;;0.7;0.4;;;;;;;;;;;;;
2020/03/02 02:00:58;;;;;;;0.7;0.3;;;;;;;;;;;;;
2020/03/02 02:03:23;;;;;;;0.8;0.3;;;;;;;;;;;;;
2020/03/02 02:05:48;;;;;;;1;0.4;;;;;;;;;;;;;
2020/03/02 02:08:13;;;;;;;0.5;0.4;;;;;;;;;;;;;
2020/03/02 02:10:38;;;;;;;0.9;0.4;;;;;;;;;;;;;
2020/03/02 02:13:03;;;;;;;0.9;0.4;;;;;;;;;;;;;
2020/03/02 02:15:28;;;;;;;0.9;0.4;;;;;;;;;;;;;
2020/03/02 02:17:53;;;;;;;1.5;0.4;;;;;;;;;;;;;
2020/03/02 02:20:18;;;;;;;1;0.4;;;;;;;;;;;;;
2020/03/02 02:22:43;;;;;;;0.5;0.4;;;;;;;;;;;;;
2020/03/02 02:25:09;;;;;;;1.3;0.5;;;;;;;;;;;;;
2020/03/02 02:30:07;;;;;;;1.1;0.3;;;;;;;;;;;;;
2020/03/02 02:32:24;;;;;;;0.8;0.4;;;;;;;;;;;;;
2020/03/02 02:34:49;;;;;;;0.6;0.4;;;;;;;;;;;;;
2020/03/02 02:37:14;;;;;;;0.7;0.4;;;;;;;;;;;;;
2020/03/02 02:39:39;;;;;;;0.5;0.3;;;;;;;;;;;;;
2020/03/02 02:42:04;;;;;;;0.8;0.4;;;;;;;;;;;;;
2020/03/02 02:44:30;;;;;;;0.7;0.5;;;;;;;;;;;;;
2020/03/02 02:46:55;;;;;;;0.8;0.6;;;;;;;;;;;;;
2020/03/02 02:49:20;;;;;;;0.6;0.3;;;;;;;;;;;;;
2020/03/02 02:51:45;;;;;;;1.1;0.4;;;;;;;;;;;;;
2020/03/02 02:54:10;;;;;;;0.6;0.5;;;;;;;;;;;;;
2020/03/02 02:56:35;;;;;;;0.3;0.3;;;;;;;;;;;;;
2020/03/02 02:59:00;;;;;;;1.1;0.5;;;;;;;;;;;;;
2020/03/02 03:01:25;;;;;;;2.3;0.5;;;;;;;;;;;;;
2020/03/02 03:03:51;;;;;;;1.1;0.3;;;;;;;;;;;;;
2020/03/02 03:06:15;;;;;;;0.8;0.5;;;;;;;;;;;;;
2020/03/02 03:08:41;;;;;;;0.9;0.7;;;;;;;;;;;;;
2020/03/02 03:11:06;;;;;;;1.2;0.9;;;;;;;;;;;;;
2020/03/02 03:13:31;;;;;;;1.5;0.8;;;;;;;;;;;;;
2020/03/02 03:15:57;;;;;;;1.5;0.8;;;;;;;;;;;;;
2020/03/02 03:18:22;;;;;;;0.5;0.5;;;;;;;;;;;;;
2020/03/02 03:20:47;;;;;;;2.5;0.6;;;;;;;;;;;;;
2020/03/02 03:23:12;;;;;;;1.4;0.6;;;;;;;;;;;;;
2020/03/02 03:25:37;;;;;;;0.8;0.4;;;;;;;;;;;;;
2020/03/02 03:28:03;;;;;;;0.5;0.5;;;;;;;;;;;;;
2020/03/02 03:30:27;;;;;;;1.4;0.7;;;;;;;;;;;;;
2020/03/02 03:32:53;;;;;;;0.9;0.6;;;;;;;;;;;;;
2020/03/02 03:35:18;;;;;;;0.7;0.5;;;;;;;;;;;;;
2020/03/02 03:37:43;;;;;;;0.8;0.7;;;;;;;;;;;;;
2020/03/02 03:40:08;;;;;;;1.3;0.7;;;;;;;;;;;;;
2020/03/02 03:42:33;;;;;;;1;0.7;;;;;;;;;;;;;
2020/03/02 03:44:58;;;;;;;1.8;0.7;;;;;;;;;;;;;
2020/03/02 03:47:23;;;;;;;1.2;0.6;;;;;;;;;;;;;
2020/03/02 03:49:49;;;;;;;1.4;0.8;;;;;;;;;;;;;
2020/03/02 03:52:14;;;;;;;1;0.7;;;;;;;;;;;;;
2020/03/02 03:54:39;;;;;;;1.5;1;;;;;;;;;;;;;
2020/03/02 03:57:04;;;;;;;1.3;0.8;;;;;;;;;;;;;
2020/03/02 03:59:29;;;;;;;1.8;0.8;;;;;;;;;;;;;
2020/03/02 04:02:30;;;;;;;1.1;0.7;;;;;;;2.92;78.4707;920.6674;;;;
2020/03/02 04:04:55;;;;;;;0.9;0.7;;;;;;;2.82;79.15918;920.6682;;;;
2020/03/02 04:07:20;;;;;;;1.1;0.7;;;;;;;2.78;78.73633;920.6092;;;;
2020/03/02 04:09:46;;;;;;;2.3;0.6;;;;;;;2.84;78.74805;920.6439;;;;
2020/03/02 04:12:11;;;;;;;0.9;0.6;;;;;;;2.86;78.55078;920.6567;;;;
2020/03/02 04:14:36;;;;;;;2.3;0.7;;;;;;;2.83;78.40918;920.7153;;;;
2020/03/02 04:17:01;;;;;;;0.9;0.5;;;;;;;2.89;78.47754;920.7183;;;;
2020/03/02 04:19:26;;;;;;;1;0.7;;;;;;;2.97;78.13184;920.7064;;;;
2020/03/02 04:21:51;;;;;;;1.4;1;;;;;;;3;78.2373;920.6335;;;;
2020/03/02 04:24:16;;;;;;;1.5;0.8;;;;;;;2.64;79.3252;920.688;;;;
2020/03/02 04:26:42;;;;;;;1.1;0.7;;;;;;;2.52;79.53906;920.6581;;;;
2020/03/02 04:29:07;;;;;;;1.2;0.8;;;;;;;2.4;80.22461;920.6511;;;;
2020/03/02 04:31:32;;;;;;;1.1;0.6;;;;;;;2.6;79.52246;920.5604;;;;
2020/03/02 04:33:57;;;;;;;1;0.7;;;;;;;2.74;78.33691;920.5153;;;;
2020/03/02 04:36:22;;;;;;;1;0.7;;;;;;;2.69;78.6084;920.5488;;;;
2020/03/02 04:38:47;;;;;;;1.2;0.8;;;;;;;2.78;78.05371;920.445;;;;
2020/03/02 04:41:12;;;;;;;1;0.7;;;;;;;2.93;77.11523;920.4255;;;;
2020/03/02 04:43:37;;;;;;;1.2;0.6;;;;;;;2.88;77.57813;920.3818;;;;
2020/03/02 04:46:03;;;;;;;2.3;0.8;;;;;;;2.95;77.23145;920.3705;;;;
2020/03/02 04:48:28;;;;;;;1.2;0.8;;;;;;;2.95;76.92773;920.3242;;;;
2020/03/02 04:50:53;;;;;;;1.4;1;;;;;;;3;76.85938;920.3588;;;;
2020/03/02 04:53:18;;;;;;;1.3;0.7;;;;;;;3.03;76.29199;920.3031;;;;
2020/03/02 04:55:43;;;;;;;2.4;1.2;;;;;;;2.97;76.63965;920.3433;;;;
2020/03/02 04:58:08;;;;;;;1.3;0.9;;;;;;;2.91;76.73047;920.3569;;;;
2020/03/02 05:00:33;;;;;;;2.8;1.5;;;;;;;2.96;76.69629;920.2692;;;;
2020/03/02 05:02:58;;;;;;;5.8;2.7;;;;;;;2.84;77.26758;920.3484;;;;
2020/03/02 05:05:24;;;;;;;2.4;1.5;;;;;;;2.41;78.57813;920.2974;;;;
2020/03/02 05:07:49;;;;;;;2.6;1.4;;;;;;;2.32;78.91895;920.2474;;;;
2020/03/02 05:10:14;;;;;;;2;0.9;;;;;;;1.96;80.03809;920.1895;;;;
2020/03/02 05:12:39;;;;;;;1.2;0.9;;;;;;;1.92;80.36719;920.1522;;;;
2020/03/02 05:15:04;;;;;;;1.4;1;;;;;;;1.66;81.50488;920.1165;;;;
2020/03/02 05:17:29;;;;;;;2.3;1.1;;;;;;;1.8;81.06152;920.1233;;;;
2020/03/02 05:19:54;;;;;;;2.1;1;;;;;;;1.83;81.04395;920.1212;;;;
2020/03/02 05:22:25;;;;;;;2.6;1;;;;;;;1.86;80.75977;920.1349;;;;
2020/03/02 05:24:44;;;;;;;1.3;0.9;;;;;;;1.61;81.81836;920.1339;;;;
2020/03/02 05:27:09;;;;;;;2.4;1.8;;;;;;;1.58;81.96875;920.1119;;;;
2020/03/02 05:29:34;;;;;;;3;1.9;;;;;;;1.65;81.79199;920.103;;;;
2020/03/02 05:32:00;;;;;;;2.6;1.7;;;;;;;1.68;81.20605;920.0611;;;;
2020/03/02 05:34:25;;;;;;;1.5;1.1;;;;;;;1.58;81.52246;920.0195;;;;
2020/03/02 05:36:50;;;;;;;2.3;1.2;;;;;;;1.57;81.85449;919.8993;;;;
2020/03/02 05:39:15;;;;;;;2.4;1.5;;;;;;;1.73;81.21289;919.8231;;;;
2020/03/02 05:41:40;;;;;;;2.5;1.5;;;;;;;1.91;80.375;919.8906;;;;
2020/03/02 05:44:05;;;;;;;1.8;1.3;;;;;;;1.98;79.74121;919.8389;;;;
2020/03/02 05:46:30;;;;;;;2.5;1.5;;;;;;;2.04;79.26074;919.8767;;;;
2020/03/02 05:48:55;;;;;;;7.4;4.9;;;;;;;2.03;79.21289;919.937;;;;
2020/03/02 05:51:20;;;;;;;5.9;3.8;;;;;;;1.98;79.39453;919.8373;;;;
2020/03/02 05:53:45;;;;;;;6.6;4.5;;;;;;;2.04;79.2832;919.796;;;;
2020/03/02 05:56:10;;;;;;;6.3;4.2;;;;;;;1.91;79.74805;919.8639;;;;
2020/03/02 05:59:19;;;;;;;5.3;3.7;;;;;;;1.37;81.47168;919.8714;;;;
2020/03/02 06:02:21;;;;;;;4.7;3.2;;;;;;;1.35;82.14844;919.766;;;;
2020/03/02 06:04:51;;;;;;;4.4;2.7;;;;;;;1.43;81.66113;919.6584;;;;
2020/03/02 06:07:16;;;;;;;3.2;2.1;;;;;;;1.42;81.56934;919.6206;;;;
2020/03/02 06:09:41;;;;;;;3.5;2.1;;;;;;;1.63;80.92773;919.6275;;;;
2020/03/02 06:12:39;;;;;;;4.7;2.4;;;;;;;1.65;80.5625;919.5861;;;;
2020/03/02 06:14:31;;;;;;;2.1;1.4;;;;;;;1.75;80.45996;919.5435;;;;
2020/03/02 06:16:56;;;;;;;2.1;1;;;;;;;1.92;79.60645;919.5259;;;;
2020/03/02 06:19:22;;;;;;;1.7;1.1;;;;;;;1.65;80.11621;919.6434;;;;
2020/03/02 06:21:47;;;;;;;3;1.2;;;;;;;1.34;81.27441;919.7863;;;;
2020/03/02 06:24:12;;;;;;;2.7;1.7;;;;;;;1.44;81.23828;919.6592;;;;
2020/03/02 06:26:37;;;;;;;4.1;2.1;;;;;;;1.64;80.94043;919.5263;;;;
2020/03/02 06:29:02;;;;;;;2.3;1.5;;;;;;;2.19;79.05273;919.4521;;;;
2020/03/02 06:31:27;;;;;;;2.1;1.3;;;;;;;2.56;77.28418;919.3727;;;;
2020/03/02 06:33:52;;;;;;;2.3;1.4;;;;;;;3.07;75.69238;919.3522;;;;
2020/03/02 06:36:18;;;;;;;2.8;1.5;;;;;;;3.6;73.11523;919.4228;;;;
2020/03/02 06:38:43;;;;;;;4.6;3;;;;;;;3.87;71.30566;919.4313;;;;
2020/03/02 06:41:08;;;;;;;4.4;2.9;;;;;;;3.77;71.7373;919.4802;;;;
2020/03/02 06:43:33;;;;;;;3.9;2.6;;;;;;;4.02;69.93555;919.4651;;;;
2020/03/02 06:45:58;;;;;;;2.5;1.8;;;;;;;3.73;70.31641;919.3911;;;;
2020/03/02 06:48:23;;;;;;;2.4;1.7;;;;;;;3.96;70.54492;919.36;;;;
2020/03/02 06:50:48;;;;;;;2.5;1.8;;;;;;;4.17;69.67871;919.3056;;;;
2020/03/02 06:53:13;;;;;;;2.3;1.8;;;;;;;3.92;70.76172;919.3591;;;;
2020/03/02 06:55:38;;;;;;;2;1.8;;;;;;;3.95;70.50977;919.3851;;;;
2020/03/02 06:58:03;;;;;;;3.1;1.8;;;;;;;4.11;70.45801;919.3859;;;;
2020/03/02 07:00:28;;;;;;;2.8;1.5;;;;;;;4.23;69.5;919.336;;;;
2020/03/02 07:02:54;;;;;;;2.1;1.3;;;;;;;3.97;70.11914;919.2427;;;;
2020/03/02 07:05:19;;;;;;;5.4;3.9;;;;;;;4.54;69.08789;919.2217;;;;
2020/03/02 07:07:44;;;;;;;4.9;4.2;;;;;;;5;67.21289;919.2523;;;;
2020/03/02 07:10:09;;;;;;;2.5;1.8;;;;;;;4.84;66.12695;919.1783;;;;
2020/03/02 07:12:34;;;;;;;2.7;1.7;;;;;;;4.65;66.89648;919.2079;;;;
2020/03/02 07:14:59;;;;;;;2.9;1.3;;;;;;;4.62;66.84766;919.1378;;;;
2020/03/02 07:17:27;;;;;;;1.8;1.3;;;;;;;4.56;66.1748;919.1523;;;;
2020/03/02 07:19:49;;;;;;;2.1;1.7;;;;;;;4.35;67.04102;919.1811;;;;
2020/03/02 07:22:15;;;;;;;5.2;3.6;;;;;;;4.48;66.50977;919.0814;;;;
2020/03/02 07:24:40;;;;;;;2.7;1.9;;;;;;;4.19;66.59961;919.1411;;;;
2020/03/02 07:27:05;;;;;;;4.8;1.8;;;;;;;3.93;68.34766;919.1671;;;;
2020/03/02 07:29:30;;;;;;;3.5;1.4;;;;;;;4.09;67.19141;919.0803;;;;
2020/03/02 07:31:55;;;;;;;3.2;2.4;;;;;;;4.32;67.11621;919.0385;;;;
2020/03/02 07:34:21;;;;;;;4.3;2;;;;;;;4.39;67.14844;919.0244;;;;
2020/03/02 07:36:46;;;;;;;2.5;1.1;;;;;;;4.53;66.70996;918.9522;;;;
2020/03/02 07:39:11;;;;;;;3.9;1.4;;;;;;;4.57;66.7168;919.0303;;;;
2020/03/02 07:41:36;;;;;;;5.2;1.2;;;;;;;4.73;64.81445;918.843;;;;
2020/03/02 07:44:01;;;;;;;3.1;1.1;;;;;;;4.81;64.07031;918.8904;;;;
2020/03/02 07:46:26;;;;;;;3.4;1.2;;;;;;;5.16;65.44434;918.7625;;;;
2020/03/02 07:48:51;;;;;;;2.9;1.3;;;;;;;5.66;64.74121;918.5858;;;;
2020/03/02 07:51:16;;;;;;;2.8;1.4;;;;;;;6.45;61.87402;918.5242;;;;
2020/03/02 07:53:41;;;;;;;3.2;1.5;;;;;;;6.94;59.16113;918.4708;;;;
2020/03/02 07:56:07;;;;;;;6.5;1.5;;;;;;;7.47;57.52246;918.3792;;;;
2020/03/02 07:58:32;;;;;;;3;1.3;;;;;;;7.39;56.53711;918.4122;;;;
2020/03/02 08:00:57;;;;;;;11.3;2;;;;;;;7.79;55.94238;918.2592;;;;
2020/03/02 08:03:22;;;;;;;15.2;2.3;;;;;;;8.18;55.1543;918.1403;;;;
2020/03/02 08:05:47;;;;;;;7.2;1.4;;;;;;;8.58;54.77246;918.1233;;;;
2020/03/02 08:08:12;;;;;;;5;1;;;;;;;9.04;51.67871;918.0404;;;;
2020/03/02 08:10:37;;;;;;;5.2;1.2;;;;;;;8.84;52.38281;918.0331;;;;
2020/03/02 08:13:02;;;;;;;9.4;1.5;;;;;;;8.76;51.41797;917.9764;;;;
2020/03/02 08:15:27;;;;;;;7.7;1.3;;;;;;;8.54;52.51758;917.9501;;;;
2020/03/02 08:17:53;;;;;;;8.4;1.6;;;;;;;8.33;53.27539;917.8856;;;;
2020/03/02 08:20:18;;;;;;;3.1;1.1;;;;;;;8.11;53.38477;917.7974;;;;
2020/03/02 08:22:43;;;;;;;1.9;1;;;;;;;7.92;53.30371;917.7405;;;;
2020/03/02 08:25:08;;;;;;;11.7;2.2;;;;;;;7.45;55.44531;917.6447;;;;
2020/03/02 08:27:33;;;;;;;7.8;1.4;;;;;;;7.62;55.35352;917.5463;;;;
2020/03/02 08:29:58;;;;;;;3.1;1.1;;;;;;;6.91;56.22461;917.4372;;;;
2020/03/02 08:32:23;;;;;;;2.5;1.1;;;;;;;6.66;57.25488;917.5264;;;;
2020/03/02 08:34:48;;;;;;;10.2;2.3;;;;;;;7.07;57.36621;917.5006;;;;
2020/03/02 08:37:13;;;;;;;6.4;1.8;;;;;;;6.93;56.18164;917.4102;;;;
2020/03/02 08:39:39;;;;;;;12;2.7;;;;;;;6.8;56.99023;917.3929;;;;
2020/03/02 08:42:04;;;;;;;14.7;3;;;;;;;7.27;56.30469;917.3078;;;;
2020/03/02 08:44:29;;;;;;;14.2;2.7;;;;;;;7.37;55.42383;917.2662;;;;
2020/03/02 08:46:54;;;;;;;13.8;3.4;;;;;;;7.79;54.60352;917.2626;;;;
2020/03/02 08:49:19;;;;;;;10.6;4.1;;;;;;;7.93;53.7373;917.3172;;;;
2020/03/02 08:51:44;;;;;;;21.8;4.3;;;;;;;8.18;54.42676;917.1297;;;;
2020/03/02 08:54:09;;;;;;;5.5;2.1;;;;;;;8.14;54.27344;917.1859;;;;
2020/03/02 08:56:34;;;;;;;7.2;2;;;;;;;7.98;53.55078;917.1214;;;;
2020/03/02 08:58:59;;;;;;;16.2;3.4;;;;;;;8.17;55.27637;917.0981;;;;
2020/03/02 09:01:25;;;;;;;14.7;2.2;;;;;;;8.01;55.54004;917.0167;;;;
2020/03/02 09:03:50;;;;;;;2.8;1.2;;;;;;;7.76;55.40527;917.0405;;;;
2020/03/02 09:06:15;;;;;;;2.8;0.9;;;;;;;7.43;54.7959;916.9871;;;;
2020/03/02 09:08:40;;;;;;;3.7;1.2;;;;;;;7.64;54.35742;916.8981;;;;
2020/03/02 09:11:05;;;;;;;4.2;1.3;;;;;;;7.66;52.17188;916.8978;;;;
2020/03/02 09:13:31;;;;;;;4.4;1.2;;;;;;;7.76;51.63965;916.7466;;;;
2020/03/02 09:15:56;;;;;;;3;1.1;;;;;;;7.42;51.55273;916.6642;;;;
2020/03/02 09:18:21;;;;;;;9.9;1.7;;;;;;;7.62;52.63281;916.5396;;;;
2020/03/02 09:20:47;;;;;;;11.2;1.9;;;;;;;7.71;52.97168;916.5146;;;;
2020/03/02 09:23:12;;;;;;;5.1;1.4;;;;;;;7.95;52.17285;916.5261;;;;
2020/03/02 09:25:37;;;;;;;1.6;1;;;;;;;8.08;51.06543;916.4648;;;;
2020/03/02 09:28:03;;;;;;;11.7;2.3;;;;;;;8.3;51.1582;916.4408;;;;
2020/03/02 09:30:28;;;;;;;6.5;1.2;;;;;;;8.54;50.2334;916.4908;;;;
2020/03/02 09:32:53;;;;;;;12.5;1.7;;;;;;;8.71;48.1377;916.4451;;;;
2020/03/02 09:35:18;;;;;;;5.2;1;;;;;;;8.86;47.49512;916.4156;;;;
2020/03/02 09:37:43;;;;;;;5.6;1;;;;;;;9.08;44.81055;916.3711;;;;
2020/03/02 09:40:08;;;;;;;7.7;1;;;;;;;9.24;43.99707;916.3068;;;;
2020/03/02 09:42:34;;;;;;;9.1;1.8;;;;;;;9.38;43.43066;916.0966;;;;
2020/03/02 09:44:59;;;;;;;7.1;1.4;;;;;;;9.51;43.28418;916.1129;;;;
2020/03/02 09:47:24;;;;;;;7;1.6;;;;;;;9.58;43.91699;916.0558;;;;
2020/03/02 09:49:49;;;;;;;7.2;1.6;;;;;;;9.73;43.69434;915.9023;;;;
2020/03/02 09:52:15;;;;;;;10.4;1.7;;;;;;;9.79;43.2666;915.9542;;;;
2020/03/02 09:54:40;;;;;;;9.1;1.9;;;;;;;9.87;43.74219;915.9431;;;;
2020/03/02 09:57:06;;;;;;;12.5;2.4;;;;;;;9.9;43.12891;915.8818;;;;
2020/03/02 09:59:31;;;;;;;8.1;1.4;;;;;;;10.03;46.87109;915.8409;;;;
2020/03/02 10:01:56;;;;;;;9.7;1.8;;;;;;;10.04;45.77734;915.8328;;;;
2020/03/02 10:04:21;;;;;;;6;1.6;;;;;;;10;46.09277;915.8865;;;;
2020/03/02 10:06:46;;;;;;;7;1.7;;;;;;;9.89;45.39746;915.8552;;;;
2020/03/02 10:09:11;;;;;;;8.6;1.8;;;;;;;9.81;45.24023;915.8091;;;;
2020/03/02 10:11:36;;;;;;;7.8;2.2;;;;;;;9.73;45.01563;915.7728;;;;
2020/03/02 10:14:01;;;;;;;4;1.1;;;;;;;9.41;40.98535;915.695;;;;
2020/03/02 10:16:27;;;;;;;3.5;1.2;;;;;;;9.29;41.78125;915.6395;;;;
2020/03/02 10:18:52;;;;;;;6.1;1.5;;;;;;;9.3;42.77344;915.4988;;;;
2020/03/02 10:21:17;;;;;;;4.7;1.1;;;;;;;9.12;40.61523;915.3447;;;;
2020/03/02 10:23:42;;;;;;;7.2;1.4;;;;;;;9.22;40.55664;915.2664;;;;
2020/03/02 10:26:07;;;;;;;7.5;3.9;;;;;;;9.39;44.83105;915.207;;;;
2020/03/02 10:28:33;;;;;;;8.7;2.7;;;;;;;9.55;44.67773;915.0906;;;;
2020/03/02 10:30:58;;;;;;;5.8;1.3;;;;;;;9.58;43.74707;915.0531;;;;
2020/03/02 10:33:23;;;;;;;4.7;1.3;;;;;;;9.57;43.4834;915.0288;;;;
2020/03/02 10:35:48;;;;;;;22.3;3.2;;;;;;;9.55;41.43066;915.0889;;;;
2020/03/02 10:38:14;;;;;;;12.7;2.2;;;;;;;9.52;41.62207;914.9888;;;;
2020/03/02 10:40:39;;;;;;;25.1;3.7;;;;;;;9.62;42.47363;914.8747;;;;
2020/03/02 10:43:04;;;;;;;5.6;1.7;;;;;;;9.71;42.71191;914.8063;;;;
2020/03/02 10:45:30;;;;;;;15.8;2.8;;;;;;;9.69;43.74609;914.7076;;;;
2020/03/02 10:47:55;;;;;;;11.1;2.2;;;;;;;9.67;44.40527;914.7294;;;;
2020/03/02 10:50:20;;;;;;;11.5;2.3;;;;;;;9.64;44.85742;914.7859;;;;
2020/03/02 10:52:45;;;;;;;7;2.5;;;;;;;9.58;43.64453;914.7346;;;;
2020/03/02 10:55:10;;;;;;;15.2;3.1;;;;;;;9.6;43.77148;914.6713;;;;
2020/03/02 10:57:35;;;;;;;13.8;2.9;;;;;;;9.7;44.55664;914.5745;;;;
2020/03/02 11:00:00;;;;;;;12.9;2.3;;;;;;;9.78;41.87402;914.4367;;;;
2020/03/02 11:02:25;;;;;;;15.5;2.4;;;;;;;9.83;42.14063;914.3284;;;;
2020/03/02 11:04:50;;;;;;;4.5;1.1;;;;;;;9.71;38.6543;914.1962;;;;
2020/03/02 11:07:16;;;;;;;9.3;1.4;;;;;;;9.64;39.76465;914.2172;;;;
2020/03/02 11:09:41;;;;;;;8.1;1.8;;;;;;;9.75;39.99023;914.2445;;;;
2020/03/02 11:12:07;;;;;;;10.3;1.2;;;;;;;9.8;39.55176;914.2367;;;;
2020/03/02 11:14:32;;;;;;;14.5;2.3;;;;;;;9.88;40.11719;914.1793;;;;
2020/03/02 11:16:57;;;;;;;12;1.5;;;;;;;9.9;40.33594;914.1484;;;;
2020/03/02 11:19:22;;;;;;;10;2.5;;;;;;;9.92;40.41797;914.1646;;;;
2020/03/02 11:21:47;;;;;;;11;1.9;;;;;;;9.9;39.6748;914.0339;;;;
2020/03/02 11:24:13;;;;;;;2.6;1.1;;;;;;;9.85;39.6709;914.0361;;;;
2020/03/02 11:26:38;;;;;;;6.8;1.6;;;;;;;9.84;39.74902;913.9404;;;;
2020/03/02 11:29:03;;;;;;;9.9;3.7;;;;;;;9.9;40.72266;913.8433;;;;
2020/03/02 11:31:28;;;;;;;5.6;2.8;;;;;;;9.89;40.44922;913.8053;;;;
2020/03/02 11:33:53;;;;;;;6.5;1.8;;;;;;;9.96;40.27246;913.8457;;;;
2020/03/02 11:36:18;;;;;;;5.5;1.6;;;;;;;10.24;40.18555;913.681;;;;
2020/03/02 11:38:43;;;;;;;6.3;1.6;;;;;;;10.33;39.83887;913.6283;;;;
2020/03/02 11:41:09;;;;;;;14.9;3.8;;;;;;;10.15;40.82715;913.5461;;;;
2020/03/02 11:43:34;;;;;;;25;4.3;;;;;;;10.16;41.79785;913.4958;;;;
2020/03/02 11:46:00;;;;;;;9.6;2.9;;;;;;;10.06;42.07324;913.304;;;;
2020/03/02 11:48:24;;;;;;;2.5;1.4;;;;;;;10.18;41.10254;913.1844;;;;
2020/03/02 11:50:50;;;;;;;15.2;2.6;;;;;;;10.01;40.83691;913.1931;;;;
2020/03/02 11:53:15;;;;;;;6.9;1.5;;;;;;;10.16;40.89648;913.2056;;;;
2020/03/02 11:55:40;;;;;;;4.7;1.4;;;;;;;10.23;39.83008;913.0715;;;;
2020/03/02 11:58:05;;;;;;;4.4;1.1;;;;;;;10.28;38.73926;913.0325;;;;
2020/03/02 12:00:30;;;;;;;7.2;1.4;;;;;;;10.58;38.10449;912.9473;;;;
2020/03/02 12:02:55;;;;;;;5;1.2;;;;;;;10.78;38.22559;912.8135;;;;
2020/03/02 12:05:22;;;;;;;9.9;1.7;;;;;;;10.97;39.12109;912.7671;;;;
2020/03/02 12:07:45;;;;;;;7.9;2.9;;;;;;;11.03;40.60156;912.6905;;;;
2020/03/02 12:10:10;;;;;;;10.6;4.5;;;;;;;10.96;39.34863;912.6305;;;;
2020/03/02 12:12:36;;;;;;;5.1;2.2;;;;;;;10.69;39.30176;912.6281;;;;
2020/03/02 12:15:01;;;;;;;8.9;2.8;;;;;;;10.81;39.0498;912.6258;;;;
2020/03/02 12:17:26;;;;;;;7.3;2.3;;;;;;;10.81;38.36426;912.5628;;;;
2020/03/02 12:19:51;;;;;;;7.1;2.6;;;;;;;11.01;38.54199;912.4944;;;;
2020/03/02 12:22:16;;;;;;;6.5;2.7;;;;;;;11.22;37.62305;912.3428;;;;
2020/03/02 12:24:41;;;;;;;4.5;1.8;;;;;;;11.2;36.14551;912.3359;;;;
2020/03/02 12:27:07;;;;;;;19.3;6.2;;;;;;;11.34;36.92383;912.1951;;;;
2020/03/02 12:29:32;;;;;;;17.1;4.7;;;;;;;11.46;38.01074;912.0715;;;;
2020/03/02 12:31:57;;;;;;;9.1;3.1;;;;;;;11.55;36.88574;912.0333;;;;
2020/03/02 12:34:23;;;;;;;6.2;2;;;;;;;11.46;34.875;911.9163;;;;
2020/03/02 12:36:48;;;;;;;6;2.3;;;;;;;11.29;34.94141;911.8328;;;;
2020/03/02 12:39:14;;;;;;;11.5;3.2;;;;;;;11.17;35.19434;911.6881;;;;
2020/03/02 12:41:47;;;;;;;7.5;2.6;;;;;;;11.37;36.08105;911.6093;;;;
2020/03/02 12:44:12;;;;;;;12.4;2.7;;;;;;;11.4;35.27051;911.6018;;;;
2020/03/02 12:46:37;;;;;;;10.3;2.1;;;;;;;11.5;35.07227;911.6295;;;;
2020/03/02 12:49:02;;;;;;;10.5;1.8;;;;;;;11.43;35.74219;911.6185;;;;
2020/03/02 12:51:27;;;;;;;6.9;1.8;;;;;;;11.28;36.24512;911.5622;;;;
2020/03/02 12:53:52;;;;;;;3.6;1.4;;;;;;;11.42;36.41699;911.4188;;;;
2020/03/02 12:56:17;;;;;;;13.2;1.9;;;;;;;11.58;35.2627;911.3212;;;;
2020/03/02 12:58:43;;;;;;;6.3;1.6;;;;;;;11.3;36.49805;911.1944;;;;
2020/03/02 13:01:08;;;;;;;6.7;1.7;;;;;;;11.25;37.68262;911.0872;;;;
2020/03/02 13:03:33;;;;;;;4.9;1.6;;;;;;;11.11;37.48828;911.038;;;;
2020/03/02 13:05:58;;;;;;;56.1;5.8;;;;;;;11.17;38.27051;911.0563;;;;
2020/03/02 13:08:23;;;;;;;11.2;2.5;;;;;;;11.49;38.20703;911.0059;;;;
2020/03/02 13:10:48;;;;;;;14.7;4.7;;;;;;;11.55;38.22461;911.0053;;;;
2020/03/02 13:13:13;;;;;;;16.6;5.8;;;;;;;11.66;38.19922;910.8557;;;;
2020/03/02 13:15:39;;;;;;;9.8;3;;;;;;;11.58;37.67773;910.8564;;;;
2020/03/02 13:18:04;;;;;;;9;2.3;;;;;;;11.36;37.08691;910.7349;;;;
2020/03/02 13:20:29;;;;;;;5;1.6;;;;;;;11.4;37.33008;910.7224;;;;
2020/03/02 13:22:54;;;;;;;8.2;2.3;;;;;;;11.97;36.9541;910.7179;;;;
2020/03/02 13:25:19;;;;;;;8.3;3.5;;;;;;;12.1;37.13867;910.6138;;;;
2020/03/02 13:27:44;;;;;;;8.8;4.2;;;;;;;12.38;36.38281;910.6039;;;;
2020/03/02 13:30:09;;;;;;;10.1;3.2;;;;;;;12.55;35.375;910.5839;;;;
2020/03/02 13:32:34;;;;;;;8.3;2.3;;;;;;;12.58;35.6416;910.5089;;;;
2020/03/02 13:35:00;;;;;;;6.3;2.5;;;;;;;12.72;35.05664;910.4537;;;;
2020/03/02 13:37:25;;;;;;;14.4;3.8;;;;;;;12.76;35.7373;910.4645;;;;
2020/03/02 13:39:50;;;;;;;4;1.7;;;;;;;12.57;34.31055;910.4503;;;;
2020/03/02 13:42:15;;;;;;;4.9;1.7;;;;;;;12.67;34.77734;910.44;;;;
2020/03/02 13:44:40;;;;;;;5;1.7;;;;;;;12.87;33.34668;910.3516;;;;
2020/03/02 13:47:06;;;;;;;7.2;1.5;;;;;;;12.74;33.22266;910.2802;;;;
2020/03/02 13:49:30;;;;;;;7.5;1.5;;;;;;;12.77;33.31641;910.1566;;;;
2020/03/02 13:51:56;;;;;;;9.7;1.7;;;;;;;12.84;33.9873;910.1845;;;;
2020/03/02 13:54:21;;;;;;;4.8;1.5;;;;;;;13.14;33.03516;910.1445;;;;
2020/03/02 13:56:46;;;;;;;2.9;1.4;;;;;;;12.97;32.21777;910.1163;;;;
2020/03/02 13:59:12;;;;;;;4;1.5;;;;;;;12.83;32.93066;910.1489;;;;
2020/03/02 14:01:36;;;;;;;6.5;1.3;;;;;;;12.87;32.94434;910.065;;;;
2020/03/02 14:04:01;;;;;;;4.9;1.1;;;;;;;13.46;33.51855;909.9543;;;;
2020/03/02 14:06:27;;;;;;;6.2;1.6;;;;;;;13.92;31.60938;909.94;;;;
2020/03/02 14:08:52;;;;;;;16.9;2.5;;;;;;;14.68;31.10059;909.886;;;;
2020/03/02 14:11:21;;;;;;;7.5;1.8;;;;;;;15.57;28.59863;909.8638;;;;
2020/03/02 14:13:46;;;;;;;3.2;1.3;;;;;;;15.39;28.4375;909.78;;;;
2020/03/02 14:16:12;;;;;;;12;2.3;;;;;;;14.97;29.80469;909.7888;;;;
2020/03/02 14:18:37;;;;;;;3.7;1.2;;;;;;;14.62;29.32031;909.8594;;;;
2020/03/02 14:21:02;;;;;;;26;3;;;;;;;14.45;30.46094;909.747;;;;
2020/03/02 14:23:27;;;;;;;5.5;1.1;;;;;;;14.02;29.71777;909.7106;;;;
2020/03/02 14:25:53;;;;;;;4.4;1.4;;;;;;;13.77;30.64453;909.6619;;;;
2020/03/02 14:28:18;;;;;;;4.7;1.3;;;;;;;13.62;30.69043;909.6552;;;;
2020/03/02 14:30:43;;;;;;;5.4;1.6;;;;;;;13.63;30.67969;909.6116;;;;
2020/03/02 14:33:08;;;;;;;9.2;1.9;;;;;;;13.79;31.18555;909.5474;;;;
2020/03/02 14:35:33;;;;;;;5.7;1.2;;;;;;;13.47;31.23145;909.4886;;;;
2020/03/02 14:37:58;;;;;;;6.5;1.2;;;;;;;13.39;31.52441;909.4722;;;;
2020/03/02 14:40:23;;;;;;;4.5;1.1;;;;;;;13.24;30.85938;909.4949;;;;
2020/03/02 14:42:49;;;;;;;9.4;1.4;;;;;;;13.25;31.26172;909.5051;;;;
2020/03/02 14:45:14;;;;;;;4.5;1.3;;;;;;;13.05;31.79883;909.4434;;;;
2020/03/02 14:47:39;;;;;;;10.4;1.4;;;;;;;13.02;32.72656;909.3156;;;;
2020/03/02 14:50:04;;;;;;;4.5;1;;;;;;;13.07;32.29395;909.282;;;;
2020/03/02 14:52:29;;;;;;;8.2;1.5;;;;;;;12.97;32.67773;909.2855;;;;
2020/03/02 14:54:54;;;;;;;11.3;1.7;;;;;;;13.07;32.73047;909.2806;;;;
2020/03/02 14:57:20;;;;;;;7.6;2;;;;;;;12.95;32.38867;909.2994;;;;
2020/03/02 14:59:45;;;;;;;6.3;1.8;;;;;;;13.02;34.97852;909.2148;;;;
2020/03/02 15:02:10;;;;;;;8.9;2.3;;;;;;;13.17;32.69238;909.2662;;;;
2020/03/02 15:04:35;;;;;;;9;4.4;;;;;;;13.26;35.39941;909.1989;;;;
2020/03/02 15:07:00;;;;;;;8.6;2.2;;;;;;;13.3;34.41406;908.9827;;;;
2020/03/02 15:09:25;;;;;;;4.7;2.2;;;;;;;13.48;35.63477;909.1005;;;;
2020/03/02 15:11:50;;;;;;;9.7;2.3;;;;;;;13.43;36.10254;909.1244;;;;
2020/03/02 15:14:15;;;;;;;5;2.1;;;;;;;13.29;41.19238;909.0875;;;;
2020/03/02 15:16:40;;;;;;;4.5;2.2;;;;;;;13.15;43.5;908.9348;;;;
2020/03/02 15:19:05;;;;;;;4.6;2.3;;;;;;;12.84;44.92676;909.0648;;;;
2020/03/02 15:21:31;;;;;;;4.6;1.7;;;;;;;12.23;45.83789;909.0645;;;;
2020/03/02 15:23:56;;;;;;;5.4;1.3;;;;;;;11.9;46.59375;909.032;;;;
2020/03/02 15:26:21;;;;;;;3.1;1.2;;;;;;;12.05;46.13867;909.0635;;;;
2020/03/02 15:28:46;;;;;;;2.6;1.3;;;;;;;12.02;46.2959;908.9928;;;;
2020/03/02 15:31:11;;;;;;;2.6;1.1;;;;;;;11.85;47.61914;908.9576;;;;
2020/03/02 15:33:36;;;;;;;3;1.4;;;;;;;11.66;48.91309;909.0369;;;;
2020/03/02 15:36:01;;;;;;;2.9;1.3;;;;;;;11.66;48.71973;908.9785;;;;
2020/03/02 15:38:26;;;;;;;4;1.5;;;;;;;11.52;49.11523;908.986;;;;